Time;durP1;ratioP1;P1;durP2;ratioP2;P2;SDS_P1;SDS_P2;PMS_P1;PMS_P2;Temp;Humidity;BMP_temperature;BMP_pressure;BME280_temperature;BME280_humidity;BME280_pressure;Samples;Min_cycle;Max_cycle;Signal;HPM_P1;HPM_P2
2022/12/21 00:01:18;;;;;;;13.07;10.98;;;10.00;99.90;;;;;;4947688;29;20030;-77
2022/12/21 00:03:47;;;;;;;17.83;10.20;;;10.00;99.90;;;;;;4948311;29;20035;-78
2022/12/21 00:06:13;;;;;;;11.05;9.93;;;10.00;99.90;;;;;;4946981;29;20047;-77
2022/12/21 00:08:44;;;;;;;13.63;10.38;;;10.00;99.90;;;;;;4947319;29;20067;-78
2022/12/21 00:11:12;;;;;;;12.07;9.43;;;10.00;99.90;;;;;;4947281;29;20103;-77
2022/12/21 00:13:39;;;;;;;12.50;11.20;;;10.00;99.90;;;;;;4947120;29;20095;-78
2022/12/21 00:16:09;;;;;;;12.65;9.35;;;10.00;99.90;;;;;;4947637;29;20481;-77
2022/12/21 00:18:36;;;;;;;;;;;10.00;99.90;;;;;;4947429;29;20106;-78
2022/12/21 00:21:10;;;;;;;11.25;10.15;;;10.00;99.90;;;;;;4947134;29;19911;-78
2022/12/21 00:23:37;;;;;;;15.00;13.43;;;9.90;99.90;;;;;;4947065;29;20032;-78
2022/12/21 00:26:04;;;;;;;11.95;10.70;;;9.90;99.90;;;;;;4958942;29;20047;-77
2022/12/21 00:28:31;;;;;;;13.00;11.65;;;9.90;99.90;;;;;;4948164;29;20032;-78
2022/12/21 00:31:08;;;;;;;12.50;10.57;;;10.00;99.90;;;;;;4947017;29;20043;-78
2022/12/21 00:33:35;;;;;;;17.38;13.48;;;9.90;99.90;;;;;;4931266;29;20027;-77
2022/12/21 00:36:02;;;;;;;15.68;12.15;;;9.90;99.90;;;;;;4963413;29;20039;-77
2022/12/21 00:38:27;;;;;;;12.30;10.90;;;9.90;99.90;;;;;;4967265;28;20035;-77
2022/12/21 00:41:03;;;;;;;12.60;11.30;;;9.90;99.90;;;;;;4966327;29;20024;-77
2022/12/21 00:43:30;;;;;;;12.77;11.48;;;9.90;99.90;;;;;;4966315;29;20035;-77
2022/12/21 00:45:56;;;;;;;13.70;12.30;;;9.80;99.90;;;;;;4950460;29;20042;-77
2022/12/21 00:48:21;;;;;;;14.23;12.73;;;9.80;99.90;;;;;;4948318;29;20075;-77
2022/12/21 00:50:47;;;;;;;17.55;12.48;;;9.80;99.90;;;;;;4946769;29;20039;-78
2022/12/21 00:53:15;;;;;;;15.07;11.20;;;9.80;99.90;;;;;;4948180;29;20031;-77
2022/12/21 00:55:50;;;;;;;13.25;11.85;;;9.80;99.90;;;;;;4961135;29;20023;-77
2022/12/21 00:58:16;;;;;;;14.23;11.35;;;9.80;99.90;;;;;;4966133;29;20023;-77
2022/12/21 01:00:42;;;;;;;13.20;11.90;;;9.80;99.90;;;;;;4966091;28;20103;-78
2022/12/21 01:03:08;;;;;;;12.68;10.95;;;9.70;99.90;;;;;;4967017;29;20023;-78
2022/12/21 01:05:34;;;;;;;16.00;14.27;;;9.70;99.90;;;;;;4953273;29;20075;-78
2022/12/21 01:08:00;;;;;;;12.18;10.85;;;9.70;99.90;;;;;;4946698;29;20039;-78
2022/12/21 01:10:26;;;;;;;15.23;12.35;;;9.70;99.90;;;;;;4962692;29;20043;-78
2022/12/21 01:12:51;;;;;;;19.35;11.77;;;9.70;99.90;;;;;;4946774;29;20051;-78
2022/12/21 01:15:17;;;;;;;11.95;9.95;;;9.80;99.90;;;;;;4948205;28;20044;-78
2022/12/21 01:17:43;;;;;;;15.13;13.55;;;9.70;99.90;;;;;;4951428;29;20035;-78
2022/12/21 01:20:09;;;;;;;13.77;11.43;;;9.70;99.90;;;;;;4934359;29;20039;-78
2022/12/21 01:22:35;;;;;;;14.48;11.95;;;9.70;99.90;;;;;;4950193;29;20067;-77
2022/12/21 01:25:01;;;;;;;16.25;12.77;;;9.70;99.90;;;;;;4940344;29;20018;-78
2022/12/21 01:27:27;;;;;;;15.10;13.50;;;9.60;99.90;;;;;;4954906;29;20040;-77
2022/12/21 01:29:53;;;;;;;13.43;11.98;;;9.60;99.90;;;;;;4951066;29;20031;-77
2022/12/21 01:32:18;;;;;;;14.10;10.98;;;9.60;99.90;;;;;;4950068;29;20039;-78
2022/12/21 01:34:44;;;;;;;15.50;11.75;;;9.70;99.90;;;;;;4955486;29;20090;-78
2022/12/21 01:37:10;;;;;;;18.90;11.38;;;9.60;99.90;;;;;;4968914;29;20549;-77
2022/12/21 01:39:36;;;;;;;15.13;10.38;;;9.60;99.90;;;;;;4968840;29;20062;-78
2022/12/21 01:42:01;;;;;;;17.27;14.02;;;9.60;99.90;;;;;;4937165;29;20078;-77
2022/12/21 01:44:47;;;;;;;17.27;14.63;;;9.60;99.90;;;;;;4966242;29;20087;-78
2022/12/21 01:47:18;;;;;;;15.90;12.32;;;9.60;99.90;;;;;;4950838;29;20095;-77
2022/12/21 01:49:50;;;;;;;11.95;10.40;;;9.60;99.90;;;;;;4949564;29;20038;-77
2022/12/21 01:52:17;;;;;;;14.48;12.40;;;9.60;99.90;;;;;;4949603;29;20043;-78
2022/12/21 01:54:50;;;;;;;13.15;11.85;;;9.70;99.90;;;;;;4953902;29;20185;-78
2022/12/21 01:57:16;;;;;;;16.75;14.15;;;9.70;99.90;;;;;;4968630;29;20035;-77
2022/12/21 01:59:46;;;;;;;14.13;11.48;;;9.70;99.90;;;;;;4968675;29;20028;-77
2022/12/21 02:02:19;;;;;;;17.80;13.23;;;9.70;99.90;;;;;;4968647;29;20028;-77
2022/12/21 02:04:46;;;;;;;14.13;12.55;;;9.60;99.90;;;;;;4963739;29;20048;-77
2022/12/21 02:07:13;;;;;;;13.45;12.05;;;9.50;99.90;;;;;;4949346;29;20048;-78
2022/12/21 02:09:40;;;;;;;16.23;12.07;;;9.50;99.90;;;;;;4950738;29;20494;-77
2022/12/21 02:12:08;;;;;;;14.70;11.95;;;9.50;99.90;;;;;;4949008;29;20040;-78
2022/12/21 02:14:40;;;;;;;15.43;13.73;;;9.40;99.90;;;;;;4951614;29;20047;-77
2022/12/21 02:17:24;;;;;;;18.70;12.38;;;9.40;99.90;;;;;;4968548;29;20134;-77
2022/12/21 02:20:08;;;;;;;16.55;13.65;;;9.30;99.90;;;;;;4968435;29;20043;-77
2022/12/21 02:23:12;;;;;;;20.52;16.40;;;9.30;99.90;;;;;;4968283;29;20029;-78
2022/12/21 02:25:53;;;;;;;20.25;15.52;;;9.30;99.90;;;;;;4956966;29;20032;-78
2022/12/21 02:28:41;;;;;;;19.33;16.55;;;9.30;99.90;;;;;;4964187;29;20443;-77
2022/12/21 02:31:38;;;;;;;19.77;14.95;;;9.40;99.90;;;;;;4940906;29;20031;-78
2022/12/21 02:34:22;;;;;;;18.10;16.17;;;9.40;99.90;;;;;;4968039;29;20030;-77
2022/12/21 02:37:07;;;;;;;20.40;14.55;;;9.40;99.90;;;;;;4968126;29;20454;-77
2022/12/21 02:39:51;;;;;;;19.17;14.70;;;9.30;99.90;;;;;;4968916;29;20032;-77
2022/12/21 02:45:48;;;;;;;20.27;16.40;;;9.20;99.90;;;;;;4958026;29;20038;-77
2022/12/21 02:48:25;;;;;;;19.35;16.55;;;9.20;99.90;;;;;;4948717;29;20386;-77
2022/12/21 02:50:57;;;;;;;14.77;13.13;;;9.20;99.90;;;;;;4948645;29;20035;-77
2022/12/21 02:53:30;;;;;;;17.05;14.80;;;9.20;99.90;;;;;;4948473;29;20132;-77
2022/12/21 02:55:56;;;;;;;19.33;15.20;;;9.30;99.90;;;;;;4949494;29;20032;-77
2022/12/21 02:58:23;;;;;;;17.90;15.80;;;9.20;99.90;;;;;;4948259;29;20036;-77
2022/12/21 03:00:52;;;;;;;18.38;16.10;;;9.30;99.90;;;;;;4948378;29;20135;-77
2022/12/21 03:04:02;;;;;;;17.10;14.65;;;9.30;99.90;;;;;;4948309;29;20043;-77
2022/12/21 03:06:59;;;;;;;20.52;16.30;;;9.20;99.90;;;;;;4964975;29;20043;-77
2022/12/21 03:09:58;;;;;;;17.67;14.48;;;9.30;99.90;;;;;;4967504;29;20031;-77
2022/12/21 03:12:38;;;;;;;16.23;14.35;;;9.20;99.90;;;;;;4953937;29;20070;-78
2022/12/21 03:15:03;;;;;;;;;;;9.20;99.90;;;;;;4962034;29;20038;-77
2022/12/21 03:18:02;;;;;;;;;;;9.20;99.90;;;;;;4964632;29;19907;-77
2022/12/21 03:20:32;;;;;;;;;;;9.20;99.90;;;;;;4958975;29;19926;-77
2022/12/21 03:23:03;;;;;;;;;;;9.20;99.90;;;;;;4948506;29;19914;-77
2022/12/21 03:25:33;;;;;;;;;;;9.20;99.90;;;;;;4956717;29;20388;-77
2022/12/21 03:28:02;;;;;;;;;;;9.20;99.90;;;;;;4952162;28;19917;-78
2022/12/21 03:30:29;;;;;;;;;;;9.20;99.90;;;;;;4964406;29;19938;-77
2022/12/21 03:32:57;;;;;;;;;;;9.10;99.90;;;;;;4949328;29;19918;-77
2022/12/21 03:35:26;;;;;;;;;;;9.20;99.90;;;;;;4955770;29;19925;-77
2022/12/21 03:37:54;;;;;;;;;;;9.20;99.90;;;;;;4968253;28;19910;-77
2022/12/21 03:40:25;;;;;;;;;;;9.20;99.90;;;;;;4968573;29;19922;-77
2022/12/21 03:43:27;;;;;;;;;;;9.20;99.90;;;;;;4983248;28;19910;-78
2022/12/21 03:45:58;;;;;;;;;;;9.20;99.90;;;;;;4950135;29;19910;-77
2022/12/21 03:48:42;;;;;;;;;;;9.10;99.90;;;;;;4952098;29;19965;-77
2022/12/21 03:51:17;;;;;;;;;;;9.10;99.90;;;;;;4948912;29;20366;-77
2022/12/21 03:53:46;;;;;;;;;;;9.10;99.90;;;;;;4948037;29;19918;-77
2022/12/21 03:56:15;;;;;;;;;;;9.10;99.90;;;;;;4962275;29;19907;-77
2022/12/21 03:58:41;;;;;;;;;;;9.10;99.90;;;;;;4968239;28;19922;-77
2022/12/21 04:01:16;;;;;;;;;;;9.10;99.90;;;;;;4983071;28;19906;-77
2022/12/21 04:03:43;;;;;;;;;;;9.10;99.90;;;;;;4968182;29;19969;-77
2022/12/21 04:06:15;;;;;;;;;;;9.10;99.90;;;;;;4955334;28;19919;-77
2022/12/21 04:08:41;;;;;;;;;;;9.20;99.90;;;;;;4947804;29;19917;-77
2022/12/21 04:12:35;;;;;;;;;;;9.20;99.90;;;;;;4947586;29;19922;-77
2022/12/21 04:13:53;;;;;;;;;;;9.20;99.90;;;;;;4961287;29;19922;-78
2022/12/21 04:16:19;;;;;;;;;;;9.10;99.90;;;;;;4962414;29;19906;-78
2022/12/21 04:21:29;;;;;;;;;;;9.00;99.90;;;;;;4968044;29;19911;-77
2022/12/21 04:29:24;;;;;;;;;;;9.10;99.90;;;;;;4967919;29;20034;-78
2022/12/21 04:31:50;;;;;;;;;;;9.00;99.90;;;;;;4966845;29;19910;-78
2022/12/21 04:34:15;;;;;;;;;;;9.00;99.90;;;;;;4967844;29;19911;-77
2022/12/21 04:39:25;;;;;;;;;;;9.00;99.90;;;;;;4966362;29;19949;-78
2022/12/21 04:41:51;;;;;;;;;;;9.00;99.90;;;;;;4968085;28;19938;-78
2022/12/21 04:44:16;;;;;;;;;;;9.00;99.90;;;;;;4966485;29;19914;-77
2022/12/21 04:46:42;;;;;;;;;;;8.90;99.90;;;;;;4950273;29;19911;-77
2022/12/21 04:49:08;;;;;;;;;;;9.00;99.90;;;;;;4948658;29;19915;-77
2022/12/21 04:51:34;;;;;;;;;;;9.00;99.90;;;;;;4950731;29;19915;-77
2022/12/21 04:54:01;;;;;;;;;;;9.00;99.90;;;;;;4951156;29;19949;-77
2022/12/21 04:56:27;;;;;;;;;;;9.00;99.90;;;;;;4980704;28;19977;-78
2022/12/21 04:58:53;;;;;;;;;;;9.00;99.90;;;;;;4970258;29;19921;-77
2022/12/21 05:01:20;;;;;;;;;;;9.00;99.90;;;;;;4971243;29;19910;-77
2022/12/21 05:03:47;;;;;;;;;;;9.00;99.90;;;;;;4986461;28;20384;-77
2022/12/21 05:06:13;;;;;;;;;;;9.00;99.90;;;;;;4957904;29;19922;-78
2022/12/21 05:08:39;;;;;;;;;;;9.00;99.90;;;;;;4950725;29;19914;-77
2022/12/21 05:11:12;;;;;;;;;;;8.90;99.90;;;;;;4952233;29;19997;-77
2022/12/21 05:13:38;;;;;;;;;;;8.90;99.90;;;;;;4951971;29;20251;-77
2022/12/21 05:16:05;;;;;;;;;;;9.00;99.90;;;;;;4961882;29;19921;-77
2022/12/21 05:18:30;;;;;;;;;;;9.00;99.90;;;;;;4971128;28;19958;-77
2022/12/21 05:20:56;;;;;;;;;;;9.00;99.90;;;;;;4985913;28;19942;-77
2022/12/21 05:23:22;;;;;;;;;;;9.00;99.90;;;;;;4969667;29;19907;-77
2022/12/21 05:25:48;;;;;;;;;;;9.00;99.90;;;;;;4966871;28;19954;-77
2022/12/21 05:28:13;;;;;;;;;;;9.00;99.90;;;;;;4968486;29;19914;-77
2022/12/21 05:30:39;;;;;;;;;;;9.00;99.90;;;;;;4969247;29;19911;-77
2022/12/21 05:33:05;;;;;;;;;;;8.90;99.90;;;;;;4969616;29;19957;-78
2022/12/21 05:35:31;;;;;;;;;;;8.90;99.90;;;;;;4970275;28;19910;-77
2022/12/21 05:37:57;;;;;;;;;;;8.90;99.90;;;;;;4970807;28;19934;-77
2022/12/21 05:40:22;;;;;;;;;;;8.80;99.90;;;;;;4953362;29;19981;-77
2022/12/21 05:42:48;;;;;;;;;;;8.90;99.90;;;;;;4970174;28;20718;-77
2022/12/21 05:45:14;;;;;;;;;;;8.80;99.90;;;;;;4950866;29;19911;-77
2022/12/21 05:47:40;;;;;;;;;;;8.80;99.90;;;;;;4963211;29;20285;-78
2022/12/21 05:50:06;;;;;;;;;;;8.80;99.90;;;;;;4964008;29;20342;-77
2022/12/21 05:52:31;;;;;;;;;;;8.80;99.90;;;;;;4965964;29;19907;-77
2022/12/21 05:54:57;;;;;;;;;;;8.80;99.90;;;;;;4967523;29;19922;-77
2022/12/21 05:57:23;;;;;;;;;;;8.70;99.90;;;;;;4970167;29;19934;-77
2022/12/21 05:59:48;;;;;;;;;;;8.70;99.90;;;;;;4965680;29;19981;-77
2022/12/21 06:02:14;;;;;;;;;;;8.70;99.90;;;;;;4969554;28;20290;-79
2022/12/21 06:04:40;;;;;;;;;;;8.70;99.90;;;;;;4965349;29;19958;-78
2022/12/21 06:07:06;;;;;;;;;;;8.70;99.90;;;;;;4966543;29;20006;-78
2022/12/21 06:09:31;;;;;;;;;;;8.70;99.90;;;;;;4968327;29;19910;-78
2022/12/21 06:11:57;;;;;;;;;;;8.70;99.90;;;;;;4968370;29;19918;-79
2022/12/21 06:14:23;;;;;;;;;;;8.70;99.90;;;;;;4967224;29;19923;-79
2022/12/21 06:16:49;;;;;;;;;;;8.70;99.90;;;;;;4984016;28;19952;-79
2022/12/21 06:19:15;;;;;;;;;;;8.70;99.90;;;;;;4964540;29;20301;-79
2022/12/21 06:21:40;;;;;;;;;;;8.70;99.90;;;;;;4963361;29;19914;-79
2022/12/21 06:24:07;;;;;;;;;;;8.70;99.90;;;;;;4967540;29;19929;-79
2022/12/21 06:26:33;;;;;;;;;;;8.60;99.90;;;;;;4952145;29;19914;-79
2022/12/21 06:28:58;;;;;;;;;;;8.60;99.90;;;;;;4952086;29;19910;-79
2022/12/21 06:31:24;;;;;;;;;;;8.60;99.90;;;;;;4966669;29;20063;-80
2022/12/21 06:33:50;;;;;;;;;;;8.50;99.90;;;;;;4958701;28;19918;-79
2022/12/21 06:36:16;;;;;;;;;;;8.50;99.90;;;;;;4969423;28;19913;-79
2022/12/21 06:38:41;;;;;;;;;;;8.50;99.90;;;;;;4967900;29;19914;-79
2022/12/21 06:41:08;;;;;;;;;;;8.60;99.90;;;;;;4962636;29;19914;-79
2022/12/21 06:43:34;;;;;;;;;;;8.60;99.90;;;;;;4965833;29;19907;-79
2022/12/21 06:46:04;;;;;;;;;;;8.50;99.90;;;;;;4968061;29;19921;-79
2022/12/21 06:48:31;;;;;;;;;;;8.60;99.90;;;;;;4985515;28;19965;-79
2022/12/21 06:50:58;;;;;;;;;;;8.60;99.90;;;;;;4952579;29;20454;-79
2022/12/21 06:53:24;;;;;;;;;;;8.50;99.90;;;;;;4949744;29;19911;-79
2022/12/21 06:55:57;;;;;;;;;;;8.50;99.90;;;;;;4968742;29;19933;-79
2022/12/21 06:58:23;;;;;;;;;;;8.60;99.90;;;;;;4966708;29;19918;-77
2022/12/21 07:00:49;;;;;;;;;;;8.50;99.90;;;;;;4958186;29;19914;-77
2022/12/21 07:03:15;;;;;;;;;;;8.60;99.90;;;;;;4964104;29;19918;-78
2022/12/21 07:05:41;;;;;;;;;;;8.50;99.90;;;;;;4951329;29;19944;-77
2022/12/21 07:08:07;;;;;;;;;;;8.60;99.90;;;;;;4951265;29;19946;-80
2022/12/21 07:10:32;;;;;;;;;;;8.60;99.90;;;;;;4967305;29;19910;-77
2022/12/21 07:12:59;;;;;;;;;;;8.50;99.90;;;;;;4967259;28;19910;-77
2022/12/21 07:15:24;;;;;;;;;;;8.50;99.90;;;;;;4980184;28;19913;-77
2022/12/21 07:17:50;;;;;;;;;;;8.50;99.90;;;;;;4967470;29;19973;-77
2022/12/21 07:20:16;;;;;;;;;;;8.50;99.90;;;;;;4968443;28;19914;-77
2022/12/21 07:22:42;;;;;;;;;;;8.40;99.90;;;;;;4966958;29;19911;-79
2022/12/21 07:25:08;;;;;;;;;;;8.40;99.90;;;;;;4983706;28;19921;-79
2022/12/21 07:27:34;;;;;;;;;;;8.40;99.90;;;;;;4967406;29;19921;-78
2022/12/21 07:29:59;;;;;;;;;;;8.40;99.90;;;;;;4983609;28;19906;-79
2022/12/21 07:32:25;;;;;;;;;;;8.40;99.90;;;;;;4967194;29;19915;-79
2022/12/21 07:34:51;;;;;;;;;;;8.40;99.90;;;;;;4967233;29;20005;-79
2022/12/21 07:37:16;;;;;;;;;;;8.40;99.90;;;;;;4968451;28;19914;-79
2022/12/21 07:39:42;;;;;;;;;;;8.40;99.90;;;;;;4953993;28;19925;-79
2022/12/21 07:42:08;;;;;;;;;;;8.40;99.90;;;;;;4949272;29;19915;-79
2022/12/21 07:44:34;;;;;;;;;;;8.40;99.90;;;;;;4947945;29;20389;-79
2022/12/21 07:47:13;;;;;;;;;;;8.40;99.90;;;;;;4948116;29;19915;-79
2022/12/21 07:49:39;;;;;;;;;;;8.40;99.90;;;;;;4965166;29;19961;-79
2022/12/21 07:52:05;;;;;;;;;;;8.40;99.90;;;;;;4968910;28;19911;-78
2022/12/21 07:54:30;;;;;;;;;;;8.30;99.90;;;;;;4968446;28;19906;-79
2022/12/21 07:56:56;;;;;;;;;;;8.30;99.90;;;;;;4967791;29;19945;-79
2022/12/21 07:59:22;;;;;;;;;;;8.30;99.90;;;;;;4964626;29;19926;-79
2022/12/21 08:01:47;;;;;;;;;;;8.30;99.90;;;;;;4965956;29;19965;-79
2022/12/21 08:04:13;;;;;;;;;;;8.30;99.90;;;;;;4971391;28;19969;-79
2022/12/21 08:06:39;;;;;;;;;;;8.30;99.90;;;;;;4948924;29;19915;-79
2022/12/21 08:09:04;;;;;;;;;;;8.40;99.90;;;;;;4948106;29;19911;-79
2022/12/21 08:11:30;;;;;;;;;;;8.30;99.90;;;;;;4947750;29;19935;-79
2022/12/21 08:13:56;;;;;;;;;;;8.30;99.90;;;;;;4953307;29;19953;-78
2022/12/21 08:16:22;;;;;;;;;;;8.30;99.90;;;;;;4958785;29;19906;-79
2022/12/21 08:18:48;;;;;;;;;;;8.30;99.90;;;;;;4966662;28;19922;-79
2022/12/21 08:21:14;;;;;;;;;;;8.30;99.90;;;;;;4969533;28;19949;-78
2022/12/21 08:23:40;;;;;;;;;;;8.40;99.90;;;;;;4966766;28;19906;-78
2022/12/21 08:26:07;;;;;;;;;;;8.40;99.90;;;;;;4970789;28;19914;-79
2022/12/21 08:28:33;;;;;;;;;;;8.40;99.90;;;;;;4971980;28;19917;-79
2022/12/21 08:31:00;;;;;;;;;;;8.40;99.90;;;;;;4970780;29;19906;-78
2022/12/21 08:33:26;;;;;;;;;;;8.30;99.90;;;;;;4971915;28;19917;-79
2022/12/21 08:35:52;;;;;;;;;;;8.30;99.90;;;;;;4971485;29;19910;-78
2022/12/21 08:38:17;;;;;;;;;;;8.30;99.90;;;;;;4970749;29;19911;-79
2022/12/21 08:40:43;;;;;;;;;;;8.30;99.90;;;;;;4954304;29;19918;-79
2022/12/21 08:43:09;;;;;;;;;;;8.30;99.90;;;;;;4971835;28;20013;-78
2022/12/21 08:45:35;;;;;;;;;;;8.40;99.90;;;;;;4971952;28;19906;-79
2022/12/21 08:48:00;;;;;;;;;;;8.30;99.90;;;;;;4963000;28;19934;-78
2022/12/21 08:50:26;;;;;;;;;;;8.40;99.90;;;;;;4951335;29;20401;-79
2022/12/21 08:52:52;;;;;;;;;;;8.40;99.90;;;;;;4952237;29;19997;-79
2022/12/21 08:55:17;;;;;;;;;;;8.50;99.90;;;;;;4956687;29;19922;-79
2022/12/21 08:57:43;;;;;;;;;;;8.50;99.90;;;;;;4969928;29;19911;-79
2022/12/21 09:00:10;;;;;;;;;;;8.50;99.90;;;;;;4971017;28;19918;-79
2022/12/21 09:02:36;;;;;;;;;;;8.50;99.90;;;;;;4970008;29;19934;-78
2022/12/21 09:05:02;;;;;;;;;;;8.60;99.90;;;;;;4971383;29;20288;-79
2022/12/21 09:07:28;;;;;;;;;;;8.70;99.90;;;;;;4971205;29;19957;-79
2022/12/21 09:09:53;;;;;;;;;;;8.80;99.90;;;;;;4969677;29;19914;-79
2022/12/21 09:12:19;;;;;;;;;;;9.00;99.90;;;;;;4971310;29;19937;-78
2022/12/21 09:14:45;;;;;;;;;;;9.40;99.90;;;;;;4971099;28;19911;-79
2022/12/21 09:17:11;;;;;;;;;;;9.70;99.90;;;;;;4971098;28;19943;-79
2022/12/21 09:19:36;;;;;;;;;;;9.90;99.90;;;;;;4937736;29;19918;-79
2022/12/21 09:22:02;;;;;;;;;;;10.00;99.90;;;;;;4970754;29;19914;-78
2022/12/21 09:24:28;;;;;;;;;;;10.50;99.90;;;;;;4969765;29;19949;-76
2022/12/21 09:26:53;;;;;;;;;;;11.80;99.90;;;;;;4969797;29;19948;-77
2022/12/21 09:29:22;;;;;;;;;;;12.60;99.90;;;;;;4969548;29;19919;-77
2022/12/21 09:31:50;;;;;;;;;;;12.60;99.90;;;;;;4970459;28;19921;-77
2022/12/21 09:34:16;;;;;;;;;;;12.20;99.90;;;;;;4970892;28;19977;-77
2022/12/21 09:36:42;;;;;;;;;;;11.70;99.90;;;;;;4969159;28;20009;-77
2022/12/21 09:39:08;;;;;;;;;;;11.20;99.90;;;;;;4970529;28;19921;-77
2022/12/21 09:41:37;;;;;;;;;;;10.60;99.90;;;;;;4950038;29;19910;-77
2022/12/21 09:44:22;;;;;;;;;;;10.30;99.90;;;;;;4966317;29;19910;-78
2022/12/21 09:46:53;;;;;;;;;;;10.00;99.90;;;;;;4966309;29;19922;-78
2022/12/21 09:49:21;;;;;;;;;;;9.90;99.90;;;;;;4955456;29;19911;-78
2022/12/21 09:51:51;;;;;;;;;;;9.70;99.90;;;;;;4970440;28;19911;-79
2022/12/21 09:54:19;;;;;;;;;;;9.70;99.90;;;;;;4970584;28;19934;-78
2022/12/21 09:56:46;;;;;;;;;;;9.70;99.90;;;;;;4970534;28;20437;-79
2022/12/21 09:59:13;;;;;;;;;;;9.70;99.90;;;;;;4969917;29;19938;-78
2022/12/21 10:01:43;;;;;;;;;;;9.60;99.90;;;;;;4970452;28;19906;-78
2022/12/21 10:04:08;;;;;;;;;;;9.60;99.90;;;;;;4967340;29;19915;-78
2022/12/21 10:06:46;;;;;;;;;;;9.60;99.90;;;;;;4970046;28;19977;-78
2022/12/21 10:09:39;;;;;;;;;;;9.50;99.90;;;;;;4964775;29;20362;-78
2022/12/21 10:12:12;;;;;;;;;;;9.50;99.90;;;;;;4964803;29;19918;-78
2022/12/21 10:14:44;;;;;;;;;;;9.50;99.90;;;;;;4952019;29;19914;-78
2022/12/21 10:17:29;;;;;;;;;;;9.60;99.90;;;;;;4969953;28;20326;-78
2022/12/21 10:20:01;;;;;;;;;;;9.90;99.90;;;;;;4968853;29;19918;-79
2022/12/21 10:22:32;;;;;;;;;;;10.00;99.90;;;;;;4968677;29;19937;-79
2022/12/21 10:25:00;;;;;;;;;;;10.10;99.90;;;;;;4969949;28;20000;-79
2022/12/21 10:27:29;;;;;;;;;;;10.10;99.90;;;;;;4969594;28;19906;-78
2022/12/21 10:29:57;;;;;;;;;;;10.00;99.90;;;;;;4969899;29;20001;-79
2022/12/21 10:32:25;;;;;;;;;;;10.00;99.90;;;;;;4968517;28;19918;-79
2022/12/21 10:34:53;;;;;;;;;;;10.20;99.90;;;;;;4969891;29;19917;-78
2022/12/21 10:37:19;;;;;;;;;;;10.20;99.90;;;;;;4968062;29;19914;-79
2022/12/21 10:39:46;;;;;;;;;;;10.40;99.90;;;;;;4967977;29;19914;-79
2022/12/21 10:42:27;;;;;;;;;;;10.40;99.90;;;;;;4968485;29;19917;-78
2022/12/21 10:44:53;;;;;;;;;;;10.50;99.90;;;;;;4985047;28;19910;-78
2022/12/21 10:47:20;;;;;;;;;;;10.60;99.90;;;;;;4967268;28;19918;-79
2022/12/21 10:49:54;;;;;;;;;;;10.70;99.90;;;;;;4969242;29;19995;-78
2022/12/21 10:52:32;;;;;;;;;;;10.80;99.90;;;;;;4969477;28;19911;-78
2022/12/21 10:54:58;;;;;;;;;;;10.80;99.90;;;;;;4958295;29;20337;-78
2022/12/21 10:57:25;;;;;;;;;;;10.80;99.90;;;;;;4982490;28;19989;-77
2022/12/21 10:59:51;;;;;;;;;;;10.80;99.90;;;;;;4964781;28;19966;-77
2022/12/21 11:02:34;;;;;;;;;;;10.90;99.90;;;;;;4948874;29;19911;-77
2022/12/21 11:05:00;;;;;;;;;;;11.10;99.90;;;;;;4949904;29;19928;-77
2022/12/21 11:07:28;;;;;;;;;;;11.40;99.90;;;;;;4948849;29;19911;-77
2022/12/21 11:09:57;;;;;;;;;;;11.80;99.90;;;;;;4949810;29;19948;-77
2022/12/21 11:12:23;;;;;;;;;;;12.10;99.90;;;;;;4949936;29;19969;-77
2022/12/21 11:14:50;;;;;;;;;;;12.40;99.90;;;;;;4949859;29;19950;-77
2022/12/21 11:17:25;;;;;;;;;;;12.30;99.90;;;;;;4950066;29;19998;-77
2022/12/21 11:20:00;;;;;;;;;;;12.20;99.90;;;;;;4948632;29;19978;-78
2022/12/21 11:22:28;;;;;;;;;;;11.90;99.90;;;;;;4948585;29;19911;-77
2022/12/21 11:24:56;;;;;;;;;;;11.50;99.90;;;;;;4949541;29;19910;-77
2022/12/21 11:27:24;;;;;;;;;;;11.30;99.90;;;;;;4951757;29;19925;-77
2022/12/21 11:29:59;;;;;;;;;;;11.10;99.90;;;;;;4957564;29;19962;-78
2022/12/21 11:32:26;;;;;;;;;;;11.10;99.90;;;;;;4948104;29;19911;-77
2022/12/21 11:34:53;;;;;;;;;;;11.00;99.90;;;;;;4949406;29;19907;-77
2022/12/21 11:37:37;;;;;;;;;;;10.90;99.90;;;;;;4950613;29;19910;-77
2022/12/21 11:40:24;;;;;;;;;;;10.80;99.90;;;;;;4967245;29;19980;-77
2022/12/21 11:42:52;;;;;;;;;;;10.70;99.90;;;;;;4983337;28;19914;-77
2022/12/21 11:45:22;;;;;;;;;;;10.60;99.90;;;;;;4968511;28;20405;-77
2022/12/21 11:48:07;;;;;;;;;;;10.50;99.90;;;;;;4978117;28;19915;-77
2022/12/21 11:50:39;;;;;;;;;;;10.40;99.90;;;;;;4948236;29;19914;-77
2022/12/21 11:53:14;;;;;;;;;;;10.40;99.90;;;;;;4949124;29;19914;-77
2022/12/21 11:55:43;;;;;;;;;;;10.30;99.90;;;;;;4949185;29;19943;-77
2022/12/21 11:58:26;;;;;;;;;;;10.30;99.90;;;;;;4953424;29;20259;-77
2022/12/21 12:01:11;;;;;;;;;;;10.20;99.90;;;;;;4959129;29;19958;-78
2022/12/21 12:03:50;;;;;;;;;;;10.00;99.90;;;;;;4949185;29;19942;-77
2022/12/21 12:06:21;;;;;;;;;;;10.00;99.90;;;;;;4947625;29;19922;-77
2022/12/21 12:08:50;;;;;;;;;;;9.90;99.90;;;;;;4949020;29;19974;-77
2022/12/21 12:11:28;;;;;;;;;;;9.80;99.90;;;;;;4949024;29;19962;-77
2022/12/21 12:14:06;;;;;;;;;;;9.90;99.90;;;;;;4982763;28;19997;-77
2022/12/21 12:16:40;;;;;;;;;;;9.90;99.90;;;;;;4948533;29;20021;-77
2022/12/21 12:19:11;;;;;;;;;;;9.90;99.90;;;;;;4948857;29;19925;-78
2022/12/21 12:21:37;;;;;;;;;;;10.00;99.90;;;;;;4948778;29;19911;-78
2022/12/21 12:24:04;;;;;;;;;;;10.00;99.90;;;;;;4948999;29;19910;-78
2022/12/21 12:26:48;;;;;;;;;;;10.00;99.90;;;;;;4963120;29;19914;-77
2022/12/21 12:29:21;;;;;;;;;;;9.90;99.90;;;;;;4982678;28;20263;-77
2022/12/21 12:32:19;;;;;;;;;;;9.90;99.90;;;;;;4967874;29;19993;-77
2022/12/21 12:34:45;;;;;;;;;;;9.90;99.90;;;;;;4965950;29;19911;-77
2022/12/21 12:37:29;;;;;;;;;;;9.90;99.90;;;;;;4948711;29;19984;-77
2022/12/21 12:40:21;;;;;;;;;;;9.90;99.90;;;;;;4947390;29;19915;-77
2022/12/21 12:43:10;;;;;;;;;;;9.80;99.90;;;;;;4948799;29;19910;-77
2022/12/21 12:45:36;;;;;;;;;;;9.80;99.90;;;;;;4954540;29;19918;-77
2022/12/21 12:48:05;;;;;;;;;;;9.70;99.90;;;;;;4966589;29;19910;-77
2022/12/21 12:50:43;;;;;;;;;;;9.70;99.90;;;;;;4967794;28;20068;-77
2022/12/21 12:53:33;;;;;;;;;;;9.80;99.90;;;;;;4967823;28;19910;-77
2022/12/21 12:56:17;;;;;;;;;;;9.80;99.90;;;;;;4967280;28;19910;-78
2022/12/21 12:58:56;;;;;;;;;;;9.80;99.90;;;;;;4982506;28;19911;-77
2022/12/21 13:01:21;;;;;;;;;;;9.90;99.90;;;;;;4968013;28;19934;-77
2022/12/21 13:04:08;;;;;;;;;;;9.90;99.90;;;;;;4967527;28;19914;-77
2022/12/21 13:06:53;;;;;;;;;;;9.90;99.90;;;;;;4961626;28;19925;-78
2022/12/21 13:09:25;;;;;;;;;;;9.90;99.90;;;;;;4948434;29;19918;-79
2022/12/21 13:11:57;;;;;;;;;;;9.90;99.90;;;;;;4949443;29;19911;-78
2022/12/21 13:14:35;;;;;;;;;;;9.90;99.90;;;;;;4952188;29;19911;-78
2022/12/21 13:17:09;;;;;;;;;;;9.80;99.90;;;;;;4969819;29;19946;-78
2022/12/21 13:19:35;;;;;;;;;;;9.90;99.90;;;;;;4970991;28;19969;-78
2022/12/21 13:22:02;;;;;;;;;;;9.90;99.90;;;;;;4971115;28;19906;-79
2022/12/21 13:24:36;;;;;;;;;;;9.90;99.90;;;;;;4969936;29;19961;-79
2022/12/21 13:27:05;;;;;;;;;;;9.90;99.90;;;;;;4968230;29;19917;-78
2022/12/21 13:29:34;;;;;;;;;;;9.90;99.90;;;;;;4981963;28;19911;-79
2022/12/21 13:32:01;;;;;;;;;;;9.90;99.90;;;;;;4950357;29;20377;-79
2022/12/21 13:34:46;;;;;;;;;;;10.00;99.90;;;;;;4960261;29;19906;-78
2022/12/21 13:37:14;;;;;;;;;;;9.90;99.90;;;;;;4970858;29;19917;-78
2022/12/21 13:39:42;;;;;;;;;;;9.70;99.90;;;;;;4970916;28;19972;-77
2022/12/21 13:42:19;;;;;;;;;;;9.70;99.90;;;;;;4969844;29;19922;-78
2022/12/21 13:44:48;;;;;;;;;;;9.70;99.90;;;;;;4957363;29;19997;-78
2022/12/21 13:47:14;;;;;;;;;;;9.80;99.90;;;;;;4951633;29;19911;-78
2022/12/21 13:49:59;;;;;;;;;;;9.70;99.90;;;;;;4950039;29;19938;-78
2022/12/21 13:52:24;;;;;;;;;;;9.70;99.90;;;;;;4950041;29;19914;-78
2022/12/21 13:55:02;;;;;;;;;;;9.70;99.90;;;;;;4953746;29;19957;-78
2022/12/21 13:57:34;;;;;;;;;;;9.70;99.90;;;;;;4949925;29;19920;-78
2022/12/21 14:00:13;;;;;;;;;;;9.60;99.90;;;;;;4951266;29;19921;-78
2022/12/21 14:02:57;;;;;;;;;;;9.60;99.90;;;;;;4951155;29;19976;-78
2022/12/21 14:05:24;;;;;;;;;;;9.60;99.90;;;;;;4965703;29;19914;-78
2022/12/21 14:08:14;;;;;;;;;;;9.50;99.90;;;;;;4968787;29;19918;-78
2022/12/21 14:10:55;;;;;;;;;;;9.50;99.90;;;;;;4970299;28;19975;-78
2022/12/21 14:13:24;;;;;;;;;;;9.50;99.90;;;;;;4968966;29;19910;-78
2022/12/21 14:15:50;;;;;;;;;;;9.40;99.90;;;;;;4950251;29;19970;-78
2022/12/21 14:18:17;;;;;;;;;;;9.40;99.90;;;;;;4949584;29;20592;-78
2022/12/21 14:20:43;;;;;;;;;;;9.40;99.90;;;;;;4950819;29;19919;-78
2022/12/21 14:23:23;;;;;;;;;;;9.40;99.90;;;;;;4950818;29;19911;-78
2022/12/21 14:25:49;;;;;;;;;;;9.30;99.90;;;;;;4970020;28;19978;-78
2022/12/21 14:28:21;;;;;;;;;;;9.30;99.90;;;;;;4984833;28;19910;-78
2022/12/21 14:30:48;;;;;;;;;;;9.30;99.90;;;;;;4962066;28;19917;-78
2022/12/21 14:33:17;;;;;;;;;;;9.20;99.90;;;;;;4950780;29;19915;-78